Terminal Aerodrome Forecast
Issued by NWS St Louis, MO

Home | Current Version | Previous Version | Text Only | Print | Product List | Glossary On
Versions: 1 2 3 4 5 6 7 8 9 10 11 12 13 14 15 16 17 18 19 20 21 22 23 24 25 26 27 28 29
000
FTUS43 KLSX 011500 AAA
TAFSTL
TAF AMD
KSTL 011502Z 0115/0218 VRB04KT 4SM -SN BR SCT004 OVC015
      TEMPO 0115/0117 2SM -FZDZSN BR BKN004
     FM012100 31006KT 6SM -SN OVC015
     FM020000 32006KT P6SM OVC015
     FM020300 32005KT P6SM SCT020 BKN120
     FM021500 06005KT P6SM BKN120=

USA.gov is the U.S. government's official web portal to all federal, state and local government web resources and services.